createdAt,value
2022-09-29T00:01:19.432Z,98729.13
2022-09-29T00:03:47.726Z,98727.98
2022-09-29T00:06:18.852Z,98734.66
2022-09-29T00:08:47.642Z,98741.75
2022-09-29T00:11:19.445Z,98744.31
2022-09-29T00:13:48.256Z,98747.88
2022-09-29T00:16:17.182Z,98748.80
2022-09-29T00:18:46.260Z,98752.25
2022-09-29T00:21:21.623Z,98754.34
2022-09-29T00:23:50.960Z,98751.88
2022-09-29T00:26:23.033Z,98753.36
2022-09-29T00:28:58.288Z,98754.79
2022-09-29T00:31:30.721Z,98750.41
2022-09-29T00:33:59.600Z,98743.66
2022-09-29T00:36:31.165Z,98748.59
2022-09-29T00:39:00.303Z,98741.74
2022-09-29T00:41:36.053Z,98742.73
2022-09-29T00:44:52.324Z,98740.08
2022-09-29T00:47:22.161Z,98739.16
2022-09-29T00:49:59.061Z,98741.78
2022-09-29T00:52:38.041Z,98741.94
2022-09-29T00:55:15.701Z,98746.96
2022-09-29T00:58:02.015Z,98749.96
2022-09-29T01:00:30.532Z,98749.86
2022-09-29T01:03:08.554Z,98748.20
2022-09-29T01:05:43.150Z,98751.99
2022-09-29T01:08:39.179Z,98753.41
2022-09-29T01:11:09.842Z,98759.00
2022-09-29T01:13:39.682Z,98760.98
2022-09-29T01:16:08.353Z,98769.23
2022-09-29T01:18:37.962Z,98774.11
2022-09-29T01:21:52.381Z,98773.77
2022-09-29T01:24:57.426Z,98770.84
2022-09-29T01:28:01.772Z,98770.96
2022-09-29T01:31:05.034Z,98777.12
2022-09-29T01:34:12.313Z,98780.52
2022-09-29T01:37:28.358Z,98781.44
2022-09-29T01:40:23.683Z,98784.07
2022-09-29T01:43:04.879Z,98781.96
2022-09-29T01:45:38.791Z,98781.79
2022-09-29T01:48:14.833Z,98786.51
2022-09-29T01:50:49.019Z,98789.39
2022-09-29T01:53:26.811Z,98789.61
2022-09-29T01:56:04.031Z,98790.02
2022-09-29T01:58:54.011Z,98791.64
2022-09-29T02:01:27.369Z,98790.05
2022-09-29T02:04:03.446Z,98791.06
2022-09-29T02:06:45.167Z,98792.62
2022-09-29T02:09:25.036Z,98797.90
2022-09-29T02:11:55.330Z,98795.54
2022-09-29T02:14:29.087Z,98797.17
2022-09-29T02:17:08.094Z,98790.84
2022-09-29T02:19:42.264Z,98792.23
2022-09-29T02:22:10.670Z,98796.75
2022-09-29T02:24:39.254Z,98794.74
2022-09-29T02:27:08.164Z,98794.27
2022-09-29T02:29:38.226Z,98797.78
2022-09-29T02:32:09.938Z,98797.11
2022-09-29T02:34:46.093Z,98804.73
2022-09-29T02:37:54.692Z,98805.95
2022-09-29T02:40:44.667Z,98801.33
2022-09-29T02:43:42.261Z,98799.29
2022-09-29T02:46:35.584Z,98795.33
2022-09-29T02:49:22.698Z,98789.20
2022-09-29T02:52:39.996Z,98789.83
2022-09-29T02:55:19.921Z,98788.00
2022-09-29T02:57:52.667Z,98788.08
2022-09-29T03:00:21.974Z,98789.60
2022-09-29T03:02:50.369Z,98789.92
2022-09-29T03:05:22.692Z,98786.00
2022-09-29T03:07:50.969Z,98790.70
2022-09-29T03:10:19.751Z,98792.77
2022-09-29T03:12:48.191Z,98801.13
2022-09-29T03:15:17.166Z,98804.09
2022-09-29T03:17:45.425Z,98804.11
2022-09-29T03:20:13.829Z,98806.45
2022-09-29T03:22:42.131Z,98801.85
2022-09-29T03:25:14.896Z,98802.21
2022-09-29T03:27:43.715Z,98800.83
2022-09-29T03:30:13.574Z,98801.73
2022-09-29T03:32:43.872Z,98809.52
2022-09-29T03:35:12.445Z,98811.61
2022-09-29T03:37:40.853Z,98819.48
2022-09-29T03:40:10.299Z,98820.02
2022-09-29T03:42:38.779Z,98816.38
2022-09-29T03:45:07.739Z,98814.34
2022-09-29T03:47:36.463Z,98811.11
2022-09-29T03:50:05.196Z,98815.07
2022-09-29T03:52:33.578Z,98820.36
2022-09-29T03:55:01.949Z,98819.02
2022-09-29T03:57:30.281Z,98822.88
2022-09-29T03:59:58.525Z,98822.19
2022-09-29T04:02:26.876Z,98821.57
2022-09-29T04:04:55.138Z,98820.89
2022-09-29T04:07:23.420Z,98826.83
2022-09-29T04:09:52.086Z,98824.88
2022-09-29T04:12:20.706Z,98820.35
2022-09-29T04:14:49.459Z,98825.89
2022-09-29T04:17:17.714Z,98827.83
2022-09-29T04:19:46.039Z,98828.27
2022-09-29T04:22:20.244Z,98831.17
2022-09-29T04:24:48.584Z,98832.73
2022-09-29T04:27:17.374Z,98836.91
2022-09-29T04:29:45.732Z,98839.80
2022-09-29T04:32:14.472Z,98838.09
2022-09-29T04:34:43.149Z,98837.12
2022-09-29T04:37:11.500Z,98845.20
2022-09-29T04:39:40.154Z,98847.95
2022-09-29T04:42:08.583Z,98848.82
2022-09-29T04:44:36.931Z,98848.34
2022-09-29T04:47:07.089Z,98849.52
2022-09-29T04:49:35.474Z,98848.54
2022-09-29T04:52:05.024Z,98848.89
2022-09-29T04:54:37.922Z,98849.64
2022-09-29T04:57:07.412Z,98855.19
2022-09-29T04:59:35.678Z,98856.24
2022-09-29T05:02:04.351Z,98851.97
2022-09-29T05:04:32.705Z,98850.98
2022-09-29T05:07:01.091Z,98850.02
2022-09-29T05:09:33.235Z,98851.70
2022-09-29T05:12:02.681Z,98853.98
2022-09-29T05:14:31.061Z,98860.52
2022-09-29T05:16:59.507Z,98859.64
2022-09-29T05:19:28.043Z,98862.36
2022-09-29T05:21:56.421Z,98864.98
2022-09-29T05:24:25.744Z,98864.86
2022-09-29T05:26:58.351Z,98863.83
2022-09-29T05:29:27.249Z,98863.93
2022-09-29T05:31:55.663Z,98868.48
2022-09-29T05:34:24.110Z,98872.58
2022-09-29T05:36:52.457Z,98876.35
2022-09-29T05:39:21.199Z,98875.73
2022-09-29T05:41:49.719Z,98878.70
2022-09-29T05:44:18.177Z,98880.77
2022-09-29T05:46:47.156Z,98878.57
2022-09-29T05:49:15.637Z,98874.79
2022-09-29T05:51:43.952Z,98876.02
2022-09-29T05:54:13.026Z,98879.98
2022-09-29T05:56:45.142Z,98883.59
2022-09-29T05:59:14.104Z,98884.24
2022-09-29T06:01:42.478Z,98888.52
2022-09-29T06:04:12.279Z,98891.12
2022-09-29T06:06:40.688Z,98892.16
2022-09-29T06:09:09.223Z,98893.29
2022-09-29T06:11:37.505Z,98900.38
2022-09-29T06:14:06.472Z,98900.06
2022-09-29T06:16:35.257Z,98904.80
2022-09-29T06:19:05.042Z,98907.55
2022-09-29T06:21:35.385Z,98909.48
2022-09-29T06:24:04.339Z,98911.79
2022-09-29T06:26:33.020Z,98915.85
2022-09-29T06:29:02.856Z,98918.63
2022-09-29T06:31:32.293Z,98922.17
2022-09-29T06:34:04.486Z,98920.88
2022-09-29T06:36:59.555Z,98926.41
2022-09-29T06:39:28.810Z,98924.80
2022-09-29T06:41:57.649Z,98925.20
2022-09-29T06:44:29.086Z,98926.40
2022-09-29T06:46:58.861Z,98922.11
2022-09-29T06:49:27.515Z,98920.23
2022-09-29T06:51:55.941Z,98922.98
2022-09-29T06:54:27.238Z,98920.52
2022-09-29T06:56:55.997Z,98922.91
2022-09-29T06:59:24.806Z,98920.94
2022-09-29T07:01:53.473Z,98924.67
2022-09-29T07:04:23.050Z,98928.71
2022-09-29T07:06:51.876Z,98928.77
2022-09-29T07:09:24.985Z,98930.80
2022-09-29T07:11:53.425Z,98932.46
2022-09-29T07:14:23.934Z,98934.40
2022-09-29T07:16:55.421Z,98934.60
2022-09-29T07:19:23.813Z,98938.02
2022-09-29T07:21:52.303Z,98940.12
2022-09-29T07:24:20.649Z,98940.75
2022-09-29T07:26:49.074Z,98942.41
2022-09-29T07:29:17.702Z,98944.95
2022-09-29T07:31:52.377Z,98948.64
2022-09-29T07:34:22.721Z,98949.04
2022-09-29T07:36:51.180Z,98949.17
2022-09-29T07:39:21.655Z,98949.61
2022-09-29T07:41:50.234Z,98944.66
2022-09-29T07:44:18.657Z,98944.67
2022-09-29T07:46:49.972Z,98949.98
2022-09-29T07:49:18.766Z,98951.17
2022-09-29T07:51:48.080Z,98953.55
2022-09-29T07:54:16.555Z,98960.31
2022-09-29T07:56:44.980Z,98956.26
2022-09-29T07:59:13.472Z,98954.64
2022-09-29T08:01:41.770Z,98954.48
2022-09-29T08:04:10.067Z,98952.23
2022-09-29T08:06:40.075Z,98951.98
2022-09-29T08:09:08.373Z,98954.25
2022-09-29T08:11:43.072Z,98956.70
2022-09-29T08:14:11.921Z,98957.67
2022-09-29T08:16:40.418Z,98962.63
2022-09-29T08:19:08.950Z,98959.04
2022-09-29T08:21:38.042Z,98961.31
2022-09-29T08:24:07.341Z,98964.55
2022-09-29T08:26:43.240Z,98963.04
2022-09-29T08:29:17.272Z,98967.39
2022-09-29T08:31:47.386Z,98968.99
2022-09-29T08:34:16.136Z,98967.82
2022-09-29T08:36:45.245Z,98973.45
2022-09-29T08:39:15.430Z,98974.70
2022-09-29T08:42:36.771Z,98973.55
2022-09-29T08:45:16.731Z,98971.40
2022-09-29T08:47:49.380Z,98973.14
2022-09-29T08:50:53.552Z,98975.17
2022-09-29T08:53:28.755Z,98980.87
2022-09-29T08:56:07.003Z,98983.53
2022-09-29T08:58:38.466Z,98983.67
2022-09-29T09:01:23.494Z,98977.76
2022-09-29T09:04:34.133Z,98980.79
2022-09-29T09:07:52.312Z,98976.42
2022-09-29T09:10:38.915Z,98979.41
2022-09-29T09:13:41.882Z,98980.36
2022-09-29T09:16:21.511Z,98983.30
2022-09-29T09:19:09.899Z,98978.58
2022-09-29T09:21:52.038Z,98980.95
2022-09-29T09:24:55.323Z,98979.39
2022-09-29T09:27:36.708Z,98979.31
2022-09-29T09:30:19.271Z,98986.72
2022-09-29T09:32:54.287Z,98990.17
2022-09-29T09:35:57.735Z,98995.92
2022-09-29T09:38:46.515Z,98999.63
2022-09-29T09:41:20.068Z,99002.90
2022-09-29T09:44:06.007Z,99010.30
2022-09-29T09:46:45.340Z,99009.04
2022-09-29T09:49:35.429Z,99014.66
2022-09-29T09:52:24.825Z,99009.63
2022-09-29T09:55:01.211Z,99005.79
2022-09-29T09:57:47.318Z,99007.63
2022-09-29T10:00:41.310Z,99006.65
2022-09-29T10:03:12.227Z,99006.20
2022-09-29T10:05:48.490Z,99003.85
2022-09-29T10:08:39.902Z,99008.84
2022-09-29T10:11:27.591Z,99007.30
2022-09-29T10:14:10.040Z,99011.66
2022-09-29T10:16:54.905Z,99015.17
2022-09-29T10:19:44.471Z,99014.09
2022-09-29T10:22:15.443Z,99013.89
2022-09-29T10:24:43.697Z,99010.53
2022-09-29T10:27:20.491Z,99015.73
2022-09-29T10:29:53.088Z,99016.55
2022-09-29T10:32:38.499Z,99012.52
2022-09-29T10:35:33.885Z,99016.84
2022-09-29T10:38:15.689Z,99021.10
2022-09-29T10:41:01.426Z,99016.19
2022-09-29T10:43:38.135Z,99017.77
2022-09-29T10:46:48.424Z,99019.87
2022-09-29T10:49:21.147Z,99026.04
2022-09-29T10:52:04.242Z,99020.75
2022-09-29T10:54:37.698Z,99016.73
2022-09-29T10:57:16.490Z,99022.48
2022-09-29T10:59:50.780Z,99018.66
2022-09-29T11:02:33.394Z,99022.39
2022-09-29T11:05:16.329Z,99021.11
2022-09-29T11:07:47.910Z,99024.49
2022-09-29T11:10:38.938Z,99023.54
2022-09-29T11:13:19.495Z,99023.23
2022-09-29T11:15:48.256Z,99023.88
2022-09-29T11:18:23.411Z,99024.27
2022-09-29T11:21:23.416Z,99026.27
2022-09-29T11:24:01.315Z,99025.86
2022-09-29T11:27:08.143Z,99026.45
2022-09-29T11:30:17.844Z,99030.36
2022-09-29T11:33:33.634Z,99030.23
2022-09-29T11:36:27.560Z,99022.86
2022-09-29T11:39:24.687Z,99020.01
2022-09-29T11:42:34.342Z,99021.26
2022-09-29T11:45:08.403Z,99020.98
2022-09-29T11:48:06.501Z,99022.41
2022-09-29T11:51:13.903Z,99021.02
2022-09-29T11:54:03.994Z,99024.88
2022-09-29T11:56:48.349Z,99025.05
2022-09-29T11:59:41.461Z,99023.16
2022-09-29T12:02:28.444Z,99021.52
2022-09-29T12:05:54.820Z,99021.22
2022-09-29T12:09:08.136Z,99016.45
2022-09-29T12:12:22.599Z,99009.56
2022-09-29T12:15:21.579Z,99014.92
2022-09-29T12:17:59.898Z,99010.13
2022-09-29T12:20:36.864Z,99008.52
2022-09-29T12:23:12.438Z,99015.70
2022-09-29T12:26:17.826Z,99014.91
2022-09-29T12:29:03.237Z,99016.03
2022-09-29T12:31:43.394Z,99015.20
2022-09-29T12:34:40.349Z,99014.77
2022-09-29T12:37:33.338Z,99016.48
2022-09-29T12:40:17.185Z,99022.38
2022-09-29T12:43:20.272Z,99023.99
2022-09-29T12:45:55.047Z,99024.30
2022-09-29T12:48:57.704Z,99020.20
2022-09-29T12:51:46.337Z,99020.71
2022-09-29T12:54:47.167Z,99014.94
2022-09-29T12:57:20.562Z,99019.46
2022-09-29T13:00:14.380Z,99018.14
2022-09-29T13:03:36.708Z,99023.50
2022-09-29T13:06:24.499Z,99024.30
2022-09-29T13:09:39.715Z,99020.54
2022-09-29T13:12:30.462Z,99022.81
2022-09-29T13:15:26.779Z,99025.44
2022-09-29T13:19:14.710Z,99024.69
2022-09-29T13:22:22.313Z,99020.25
2022-09-29T13:25:28.677Z,99023.64
2022-09-29T13:27:57.957Z,99026.00
2022-09-29T13:30:32.264Z,99029.69
2022-09-29T13:33:25.744Z,99031.91
2022-09-29T13:35:54.473Z,99032.23
2022-09-29T13:38:39.305Z,99033.80
2022-09-29T13:41:17.153Z,99033.02
2022-09-29T13:43:51.421Z,99027.36
2022-09-29T13:46:27.294Z,99032.23
2022-09-29T13:49:13.887Z,99031.30
2022-09-29T13:52:11.762Z,99034.22
2022-09-29T13:54:41.524Z,99031.63
2022-09-29T13:57:26.519Z,99034.06
2022-09-29T13:59:56.314Z,99034.77
2022-09-29T14:02:38.833Z,99039.00
2022-09-29T14:05:27.433Z,99040.10
2022-09-29T14:07:58.803Z,99039.83
2022-09-29T14:10:36.137Z,99039.98
2022-09-29T14:13:10.911Z,99038.86
2022-09-29T14:16:25.459Z,99043.79
2022-09-29T14:19:21.518Z,99051.91
2022-09-29T14:21:59.054Z,99054.64
2022-09-29T14:24:42.579Z,99057.00
2022-09-29T14:28:01.525Z,99058.26
2022-09-29T14:30:35.970Z,99053.42
2022-09-29T14:33:25.618Z,99053.81
2022-09-29T14:35:59.608Z,99050.86
2022-09-29T14:38:39.133Z,99054.60
2022-09-29T14:41:07.592Z,99056.09
2022-09-29T14:43:54.527Z,99054.34
2022-09-29T14:47:04.828Z,99056.73
2022-09-29T14:50:29.189Z,99057.16
2022-09-29T14:53:16.714Z,99060.10
2022-09-29T14:56:15.595Z,99062.68
2022-09-29T14:59:20.959Z,99065.14
2022-09-29T15:02:21.788Z,99059.13
2022-09-29T15:04:50.396Z,99062.18
2022-09-29T15:07:28.810Z,99061.66
2022-09-29T15:09:59.761Z,99058.29
2022-09-29T15:12:31.835Z,99066.77
2022-09-29T15:15:01.723Z,99065.95
2022-09-29T15:17:42.318Z,99072.02
2022-09-29T15:20:41.574Z,99076.43
2022-09-29T15:24:04.465Z,99073.40
2022-09-29T15:26:34.451Z,99077.88
2022-09-29T15:29:07.718Z,99076.23
2022-09-29T15:31:36.418Z,99081.73
2022-09-29T15:34:05.297Z,99083.12
2022-09-29T15:36:41.350Z,99080.37
2022-09-29T15:39:39.049Z,99082.38
2022-09-29T15:42:22.168Z,99083.85
2022-09-29T15:45:00.108Z,99090.13
2022-09-29T15:47:35.346Z,99092.98
2022-09-29T15:50:26.247Z,99090.84
2022-09-29T15:52:55.324Z,99093.89
2022-09-29T15:55:25.466Z,99096.90
2022-09-29T15:57:54.742Z,99100.11
2022-09-29T16:00:22.958Z,99099.95
2022-09-29T16:03:24.077Z,99101.20
2022-09-29T16:06:22.687Z,99105.93
2022-09-29T16:08:58.578Z,99119.31
2022-09-29T16:11:40.088Z,99118.48
2022-09-29T16:14:25.486Z,99128.30
2022-09-29T16:16:57.293Z,99132.77
2022-09-29T16:19:31.858Z,99134.67
2022-09-29T16:22:03.095Z,99138.02
2022-09-29T16:24:50.394Z,99136.52
2022-09-29T16:27:44.014Z,99141.27
2022-09-29T16:30:35.964Z,99146.84
2022-09-29T16:33:21.754Z,99149.27
2022-09-29T16:36:04.219Z,99157.58
2022-09-29T16:38:38.891Z,99160.94
2022-09-29T16:41:37.901Z,99163.42
2022-09-29T16:44:16.280Z,99166.05
2022-09-29T16:47:19.718Z,99168.03
2022-09-29T16:49:58.301Z,99167.20
2022-09-29T16:52:42.778Z,99173.40
2022-09-29T16:55:21.181Z,99174.77
2022-09-29T16:57:59.179Z,99179.95
2022-09-29T17:00:27.783Z,99179.18
2022-09-29T17:02:57.771Z,99186.14
2022-09-29T17:05:27.451Z,99187.55
2022-09-29T17:08:04.891Z,99187.92
2022-09-29T17:10:39.695Z,99196.94
2022-09-29T17:13:14.051Z,99199.08
2022-09-29T17:15:46.386Z,99202.35
2022-09-29T17:18:17.236Z,99200.92
2022-09-29T17:20:46.353Z,99204.36
2022-09-29T17:23:14.683Z,99205.38
2022-09-29T17:25:46.405Z,99206.94
2022-09-29T17:28:24.535Z,99211.46
2022-09-29T17:30:55.630Z,99216.73
2022-09-29T17:33:24.051Z,99220.39
2022-09-29T17:35:55.895Z,99220.27
2022-09-29T17:38:25.780Z,99222.66
2022-09-29T17:41:07.556Z,99228.27
2022-09-29T17:43:35.936Z,99227.77
2022-09-29T17:46:05.922Z,99228.35
2022-09-29T17:48:35.977Z,99229.32
2022-09-29T17:51:06.247Z,99229.95
2022-09-29T17:53:34.568Z,99235.59
2022-09-29T17:56:03.489Z,99243.05
2022-09-29T17:58:31.831Z,99244.17
2022-09-29T18:01:00.179Z,99247.88
2022-09-29T18:03:29.588Z,99253.27
2022-09-29T18:06:00.040Z,99254.55
2022-09-29T18:08:29.602Z,99253.27
2022-09-29T18:11:01.250Z,99252.37
2022-09-29T18:13:34.132Z,99257.75
2022-09-29T18:16:02.486Z,99259.38
2022-09-29T18:18:30.869Z,99256.98
2022-09-29T18:21:01.372Z,99258.41
2022-09-29T18:23:31.235Z,99258.14
2022-09-29T18:25:59.602Z,99259.14
2022-09-29T18:28:27.892Z,99258.84
2022-09-29T18:31:12.882Z,99257.23
2022-09-29T18:33:41.908Z,99260.65
2022-09-29T18:36:11.636Z,99256.19
2022-09-29T18:38:39.994Z,99255.23
2022-09-29T18:41:16.113Z,99256.77
2022-09-29T18:43:44.553Z,99254.60
2022-09-29T18:46:14.531Z,99256.91
2022-09-29T18:48:43.897Z,99259.50
2022-09-29T18:51:13.576Z,99260.52
2022-09-29T18:53:42.423Z,99260.88
2022-09-29T18:56:19.109Z,99265.42
2022-09-29T18:58:48.216Z,99267.23
2022-09-29T19:01:23.563Z,99269.41
2022-09-29T19:03:52.283Z,99270.02
2022-09-29T19:06:21.502Z,99269.30
2022-09-29T19:08:52.283Z,99270.70
2022-09-29T19:11:25.518Z,99266.15
2022-09-29T19:13:56.145Z,99268.54
2022-09-29T19:16:28.164Z,99271.80
2022-09-29T19:18:56.674Z,99278.21
2022-09-29T19:21:25.444Z,99280.75
2022-09-29T19:23:54.035Z,99283.19
2022-09-29T19:26:25.148Z,99281.91
2022-09-29T19:28:53.499Z,99286.66
2022-09-29T19:31:23.497Z,99283.68
2022-09-29T19:33:51.990Z,99285.91
2022-09-29T19:36:21.857Z,99287.50
2022-09-29T19:38:50.777Z,99285.52
2022-09-29T19:41:23.495Z,99284.42
2022-09-29T19:43:52.471Z,99287.98
2022-09-29T19:46:22.707Z,99291.16
2022-09-29T19:48:51.186Z,99287.95
2022-09-29T19:51:38.979Z,99287.93
2022-09-29T19:54:11.043Z,99282.99
2022-09-29T19:56:54.048Z,99283.30
2022-09-29T19:59:30.277Z,99288.78
2022-09-29T20:02:00.832Z,99296.29
2022-09-29T20:04:33.490Z,99294.26
2022-09-29T20:07:02.941Z,99295.77
2022-09-29T20:09:33.332Z,99299.63
2022-09-29T20:12:02.868Z,99306.77
2022-09-29T20:14:33.100Z,99313.94
2022-09-29T20:17:02.140Z,99316.10
2022-09-29T20:19:31.099Z,99315.86
2022-09-29T20:21:59.633Z,99313.39
2022-09-29T20:24:28.778Z,99310.08
2022-09-29T20:26:57.939Z,99315.39
2022-09-29T20:29:27.417Z,99326.98
2022-09-29T20:31:55.785Z,99326.45
2022-09-29T20:34:24.083Z,99330.80
2022-09-29T20:36:54.818Z,99331.65
2022-09-29T20:39:25.625Z,99333.48
2022-09-29T20:41:55.409Z,99335.22
2022-09-29T20:44:25.922Z,99336.46
2022-09-29T20:46:56.245Z,99341.38
2022-09-29T20:49:27.324Z,99345.23
2022-09-29T20:51:55.999Z,99350.66
2022-09-29T20:54:24.274Z,99356.23
2022-09-29T20:56:53.819Z,99353.30
2022-09-29T20:59:23.795Z,99356.58
2022-09-29T21:01:53.482Z,99362.55
2022-09-29T21:04:23.104Z,99361.42
2022-09-29T21:06:53.026Z,99364.46
2022-09-29T21:09:24.152Z,99368.33
2022-09-29T21:11:54.633Z,99366.27
2022-09-29T21:14:26.679Z,99374.61
2022-09-29T21:16:55.234Z,99379.48
2022-09-29T21:19:26.270Z,99378.13
2022-09-29T21:21:56.308Z,99377.20
2022-09-29T21:24:25.308Z,99380.80
2022-09-29T21:26:54.042Z,99384.60
2022-09-29T21:29:22.391Z,99390.10
2022-09-29T21:31:51.169Z,99391.48
2022-09-29T21:34:21.151Z,99395.97
2022-09-29T21:36:49.847Z,99394.86
2022-09-29T21:39:18.198Z,99396.50
2022-09-29T21:41:47.037Z,99400.34
2022-09-29T21:44:24.030Z,99400.39
2022-09-29T21:46:52.718Z,99397.69
2022-09-29T21:49:21.362Z,99395.45
2022-09-29T21:51:51.261Z,99400.81
2022-09-29T21:54:23.526Z,99401.14
2022-09-29T21:56:52.919Z,99400.80
2022-09-29T21:59:22.879Z,99406.06
2022-09-29T22:01:52.852Z,99407.65
2022-09-29T22:04:21.645Z,99408.45
2022-09-29T22:06:50.486Z,99410.43
2022-09-29T22:09:21.707Z,99414.26
2022-09-29T22:11:50.778Z,99414.05
2022-09-29T22:14:19.934Z,99418.98
2022-09-29T22:16:48.449Z,99425.15
2022-09-29T22:19:32.749Z,99421.98
2022-09-29T22:22:01.249Z,99426.50
2022-09-29T22:24:29.630Z,99427.22
2022-09-29T22:26:57.969Z,99423.73
2022-09-29T22:29:26.319Z,99426.13
2022-09-29T22:31:54.746Z,99425.23
2022-09-29T22:34:23.084Z,99426.70
2022-09-29T22:36:51.384Z,99423.98
2022-09-29T22:39:19.878Z,99425.78
2022-09-29T22:41:50.957Z,99429.34
2022-09-29T22:44:19.355Z,99434.58
2022-09-29T22:46:47.722Z,99434.33
2022-09-29T22:49:16.071Z,99435.25
2022-09-29T22:51:44.407Z,99435.98
2022-09-29T22:54:14.228Z,99430.53
2022-09-29T22:56:44.288Z,99429.23
2022-09-29T22:59:13.287Z,99425.60
2022-09-29T23:01:42.478Z,99424.04
2022-09-29T23:04:11.150Z,99425.27
2022-09-29T23:06:39.859Z,99420.80
2022-09-29T23:09:10.914Z,99423.19
2022-09-29T23:11:39.353Z,99426.93
2022-09-29T23:14:08.161Z,99420.80
2022-09-29T23:16:36.557Z,99422.07
2022-09-29T23:19:04.995Z,99426.79
2022-09-29T23:21:34.043Z,99430.73
2022-09-29T23:24:02.362Z,99437.36
2022-09-29T23:26:31.238Z,99448.33
2022-09-29T23:29:00.902Z,99450.11
2022-09-29T23:31:29.905Z,99449.54
2022-09-29T23:34:00.385Z,99453.05
2022-09-29T23:36:31.617Z,99454.70
2022-09-29T23:39:14.434Z,99457.68
2022-09-29T23:41:50.276Z,99457.23
2022-09-29T23:44:23.201Z,99453.69
2022-09-29T23:46:54.201Z,99451.50
2022-09-29T23:49:28.914Z,99447.27
2022-09-29T23:52:00.729Z,99438.89
2022-09-29T23:54:32.312Z,99443.74
2022-09-29T23:57:00.539Z,99445.48
2022-09-29T23:59:28.809Z,99449.27
